Etusivu
METAR-TAF:

METAR-TAF

Lentoasemat :

Dundee, Skotlanti

Leveyspiiri: 56-27N, Pituuspiiri: 003-01W, korkeus merenpinnasta: 4 m

Tämänhetkinen sää

Tämä raportti tehtiin 1 tunti ja 35 minuuttia sitten, kello 19.50 UTC
Tuuli 4 kn idästä
Lämpötila 14°C
Kosteus 88%
Ilmanpaine 1012 hPa
Näkyvyys 10 km tai enemmän
Hajanaisia pilviä 1000 ft:n korkeudessa

METAR: EGPN 221950Z 08004KT 9999 SCT010 14/12 Q1012

Aika: 22:25 (21:25 UTC)

Sääennuste

Tämä raportti tehtiin 4 tuntia ja 21 minuuttia sitten, kello 17.04 UTC
Ennuste voimassa 22. päivästä klo 18 UTC - 22. päivään klo 21 UTC
Tuuli 9 kn idästä
Näkyvyys 10 km tai enemmän
Hajanaisia pilviä 2000 ft:n korkeudessa
Todennäköisyys 30% :
Ajoittain
22. päivästä klo 18 UTC - 22. päivään klo 21 UTC
Näkyvyys: 6000 m
Hajonneita pilviä 600 ft:n korkeudessa
heikkoa sadetta, tihkusadetta,

TAF: EGPN 221704Z 2218/2221 08009KT 9999 SCT020 PROB30 TEMPO 2218/2221 6000 -RADZ BKN006

Säähavainnot ja -ennusteet yli 4000 lentoasemalta (METAR- ja TAF-raportit).

Käytössä olevat sääasemat on merkitty karttaan keltaisilla ja punaisilla pisteillä.

Aseta hiiri pisteen päälle nähdäksesi sääaseman nimen.

Klikkaa sitten nähdäksesi säähavainnot ja -ennusteet.

Kartan vaihtaminen: klikkaa mustalla rastilla varustettuja vihreitä pisteitä, niin voit zoomata sisään; viivalla varustettua vihreää pistettä, niin voit zoomata ulos tai vihreitä nuolia, niin pääset viereisille kartoille.


METAR-TAF: